Time;durP1;ratioP1;P1;durP2;ratioP2;P2;SDS_P1;SDS_P2;PMS_P1;PMS_P2;Temp;Humidity;BMP_temperature;BMP_pressure;BME280_temperature;BME280_humidity;BME280_pressure;Samples;Min_cycle;Max_cycle;Signal;HPM_P1;HPM_P2
2022/01/22 00:01:04;;;;;;;5.70;2.53;;;-1.60;99.90;;;;;;5132226;27;20447;-67
2022/01/22 00:03:34;;;;;;;5.40;2.70;;;-1.70;99.90;;;;;;5131908;27;20501;-66
2022/01/22 00:06:01;;;;;;;8.73;3.37;;;-1.70;99.90;;;;;;5131833;27;20456;-67
2022/01/22 00:08:28;;;;;;;4.30;3.10;;;-1.80;99.90;;;;;;5132106;27;20454;-67
2022/01/22 00:10:56;;;;;;;8.90;3.90;;;-1.80;99.90;;;;;;5132180;27;20456;-67
2022/01/22 00:16:07;;;;;;;8.47;3.50;;;-1.80;99.90;;;;;;5131623;27;20883;-66
2022/01/22 00:18:36;;;;;;;5.10;2.80;;;-1.70;99.90;;;;;;5131788;27;20525;-67
2022/01/22 00:21:03;;;;;;;11.37;3.90;;;-1.60;99.90;;;;;;5131641;27;20543;-67
2022/01/22 00:23:31;;;;;;;6.67;3.13;;;-1.70;99.90;;;;;;5131063;27;20473;-67
2022/01/22 00:25:59;;;;;;;6.97;3.50;;;-1.70;99.90;;;;;;5131514;27;20458;-67
2022/01/22 00:28:26;;;;;;;8.60;3.70;;;-1.70;99.90;;;;;;5131636;27;20451;-67
2022/01/22 00:30:53;;;;;;;6.00;3.10;;;-1.90;99.90;;;;;;5131411;27;20548;-67
2022/01/22 00:33:20;;;;;;;4.90;2.77;;;-1.80;99.90;;;;;;5130620;27;20504;-67
2022/01/22 00:35:49;;;;;;;8.40;3.23;;;-1.70;99.90;;;;;;5131456;27;20495;-67
2022/01/22 00:38:16;;;;;;;6.37;2.87;;;-1.70;99.90;;;;;;5131511;27;20510;-67
2022/01/22 00:40:50;;;;;;;5.83;2.90;;;-1.80;99.90;;;;;;5131651;27;20452;-66
2022/01/22 00:43:17;;;;;;;9.87;3.27;;;-1.80;99.90;;;;;;5131379;27;20787;-67
2022/01/22 00:45:44;;;;;;;5.80;3.23;;;-1.80;99.90;;;;;;5131360;27;20453;-67
2022/01/22 00:48:11;;;;;;;6.80;2.90;;;-1.80;99.90;;;;;;5131257;27;20454;-67
2022/01/22 00:50:38;;;;;;;7.93;3.60;;;-1.80;99.90;;;;;;5131118;27;20452;-66
2022/01/22 00:53:07;;;;;;;7.60;3.10;;;-1.80;99.90;;;;;;5131302;27;20507;-68
2022/01/22 00:55:34;;;;;;;7.93;2.60;;;-1.70;99.90;;;;;;5131233;27;20528;-67
2022/01/22 00:58:01;;;;;;;6.20;3.37;;;-1.80;99.90;;;;;;5131298;27;20457;-67
2022/01/22 01:00:28;;;;;;;5.00;3.47;;;-1.80;99.90;;;;;;5131051;27;20475;-67
2022/01/22 01:02:55;;;;;;;13.37;3.80;;;-1.80;99.90;;;;;;5131038;27;20493;-67
2022/01/22 01:05:22;;;;;;;6.63;3.00;;;-1.80;99.90;;;;;;5131093;27;20470;-67
2022/01/22 01:07:49;;;;;;;5.10;2.70;;;-1.70;99.90;;;;;;5130793;27;20451;-67
2022/01/22 01:10:19;;;;;;;9.47;3.70;;;-1.80;99.90;;;;;;5131169;27;20506;-67
2022/01/22 01:12:49;;;;;;;8.07;3.03;;;-1.80;99.90;;;;;;5131217;27;20627;-67
2022/01/22 01:15:35;;;;;;;6.20;3.20;;;-1.80;99.90;;;;;;5130811;27;20533;-67
2022/01/22 01:32:09;;;;;;;6.40;2.70;;;-1.90;99.90;;;;;;5131048;27;20844;-67
2022/01/22 01:32:17;;;;;;;9.33;3.10;;;-1.60;99.90;;;;;;5130270;28;21003;-67
2022/01/22 01:34:45;;;;;;;6.20;2.97;;;-1.70;99.90;;;;;;5130620;27;20584;-66
2022/01/22 01:37:15;;;;;;;4.30;2.10;;;-1.60;99.90;;;;;;5130397;27;20499;-67
2022/01/22 01:39:44;;;;;;;5.70;3.17;;;-1.80;99.90;;;;;;5130686;27;20544;-67
2022/01/22 01:42:17;;;;;;;7.77;2.87;;;-1.70;99.90;;;;;;5130682;27;20493;-68
2022/01/22 01:44:44;;;;;;;4.43;2.33;;;-1.70;99.90;;;;;;5130780;27;20474;-67
2022/01/22 01:47:15;;;;;;;5.63;2.70;;;-2.00;99.90;;;;;;5130813;27;20450;-67
2022/01/22 01:49:42;;;;;;;5.23;2.40;;;-1.90;99.90;;;;;;5130668;27;20457;-67
2022/01/22 01:52:15;;;;;;;4.90;2.43;;;-1.90;99.90;;;;;;5130299;27;20529;-67
2022/01/22 01:54:59;;;;;;;6.07;2.70;;;-1.90;99.90;;;;;;5130402;27;20516;-67
2022/01/22 01:57:40;;;;;;;5.53;2.43;;;-1.70;99.90;;;;;;5130622;27;20539;-67
2022/01/22 02:00:12;;;;;;;5.83;2.60;;;-1.50;99.90;;;;;;5129966;27;20467;-66
2022/01/22 02:02:40;;;;;;;6.17;2.13;;;-1.40;99.90;;;;;;5130297;27;20457;-67
2022/01/22 02:05:10;;;;;;;4.83;2.47;;;-1.50;99.90;;;;;;5130373;27;20865;-67
2022/01/22 02:07:39;;;;;;;5.67;2.70;;;-1.60;99.90;;;;;;5130405;27;20967;-68
2022/01/22 02:10:09;;;;;;;4.57;1.93;;;-1.50;99.90;;;;;;5130120;27;20446;-68
2022/01/22 02:23:43;;;;;;;6.23;2.20;;;-1.50;99.90;;;;;;5133874;27;20450;-67
2022/01/22 02:26:12;;;;;;;4.60;1.90;;;-1.50;99.90;;;;;;5133989;27;21008;-67
2022/01/22 02:28:40;;;;;;;4.17;1.80;;;-1.50;99.90;;;;;;5133667;27;20459;-67
2022/01/22 02:31:13;;;;;;;5.27;2.30;;;-1.40;99.90;;;;;;5133887;27;20451;-66
2022/01/22 02:33:50;;;;;;;4.47;2.40;;;-1.40;99.90;;;;;;5133046;27;20491;-67
2022/01/22 02:36:22;;;;;;;8.67;2.30;;;-1.50;99.90;;;;;;5133921;27;20460;-67
2022/01/22 02:38:57;;;;;;;4.23;1.70;;;-1.40;99.90;;;;;;5133844;27;20444;-67
2022/01/22 02:41:25;;;;;;;4.80;2.47;;;-1.50;99.90;;;;;;5133897;27;20963;-67
2022/01/22 02:43:54;;;;;;;7.30;2.33;;;-1.60;99.90;;;;;;5133517;27;20550;-67
2022/01/22 02:46:24;;;;;;;6.17;2.27;;;-1.70;99.90;;;;;;5133858;27;20531;-68
2022/01/22 02:48:54;;;;;;;5.30;2.23;;;-1.80;99.90;;;;;;5133805;27;20947;-67
2022/01/22 02:51:21;;;;;;;12.30;2.57;;;-1.80;99.90;;;;;;5133269;27;20448;-67
2022/01/22 02:53:50;;;;;;;6.50;2.50;;;-1.70;99.90;;;;;;5133549;27;20468;-67
2022/01/22 02:56:18;;;;;;;4.60;2.97;;;-1.50;99.90;;;;;;5133880;27;21086;-68
2022/01/22 02:58:45;;;;;;;3.90;2.10;;;-1.40;99.90;;;;;;5133610;27;20498;-67
2022/01/22 03:01:15;;;;;;;4.30;2.13;;;-1.40;99.90;;;;;;5133167;27;20453;-67
2022/01/22 03:03:42;;;;;;;4.60;1.90;;;-1.40;99.90;;;;;;5133395;27;20474;-67
2022/01/22 03:06:10;;;;;;;4.80;2.30;;;-1.30;99.90;;;;;;5133357;27;20869;-67
2022/01/22 03:08:39;;;;;;;4.37;1.90;;;-1.30;99.90;;;;;;5133424;27;20835;-67
2022/01/22 03:11:18;;;;;;;4.23;2.00;;;-1.20;99.90;;;;;;5133045;27;20803;-68
2022/01/22 03:17:09;;;;;;;5.50;2.20;;;-1.50;99.90;;;;;;5107210;27;20442;-68
2022/01/22 03:19:59;;;;;;;6.90;2.30;;;-1.60;99.90;;;;;;5133054;27;20447;-67
2022/01/22 03:22:41;;;;;;;5.90;2.20;;;-1.60;99.90;;;;;;5133020;27;20456;-67
2022/01/22 03:27:54;;;;;;;6.10;2.50;;;-1.70;99.90;;;;;;5132721;27;20433;-68
2022/01/22 03:30:22;;;;;;;5.20;2.47;;;-1.70;99.90;;;;;;5132391;27;20477;-67
2022/01/22 03:32:52;;;;;;;4.90;2.47;;;-1.70;99.90;;;;;;5132463;27;20907;-67
2022/01/22 03:35:27;;;;;;;5.63;2.33;;;-1.50;99.90;;;;;;5132777;27;20901;-68
2022/01/22 03:37:57;;;;;;;4.73;2.57;;;-1.60;99.90;;;;;;5132853;27;20543;-67
2022/01/22 03:40:27;;;;;;;5.80;2.10;;;-1.50;99.90;;;;;;5132594;27;20535;-67
2022/01/22 03:42:55;;;;;;;5.20;3.23;;;-1.50;99.90;;;;;;5132583;27;20449;-67
2022/01/22 03:45:25;;;;;;;6.57;2.20;;;-1.60;99.90;;;;;;5132115;27;20500;-67
2022/01/22 03:47:52;;;;;;;7.03;2.43;;;-1.80;99.90;;;;;;5132358;27;20517;-67
2022/01/22 03:50:20;;;;;;;4.87;1.90;;;-2.00;99.90;;;;;;5132582;27;20452;-67
2022/01/22 03:52:48;;;;;;;4.63;2.10;;;-2.00;99.90;;;;;;5132643;27;20456;-67
2022/01/22 03:55:27;;;;;;;6.67;3.20;;;-1.90;99.90;;;;;;5132056;27;20494;-68
2022/01/22 03:57:55;;;;;;;6.00;1.83;;;-1.90;99.90;;;;;;5132410;27;20541;-67
2022/01/22 04:00:24;;;;;;;4.90;2.30;;;-1.70;99.90;;;;;;5132248;27;20449;-67
2022/01/22 04:03:24;;;;;;;8.30;2.00;;;-1.70;99.90;;;;;;5132140;27;20473;-67
2022/01/22 04:06:06;;;;;;;6.47;2.67;;;-1.80;99.90;;;;;;5131893;27;20446;-67
2022/01/22 04:08:33;;;;;;;5.30;2.50;;;-1.70;99.90;;;;;;5132253;27;20453;-67
2022/01/22 04:11:01;;;;;;;9.43;2.30;;;-1.60;99.90;;;;;;5132305;27;20964;-67
2022/01/22 04:13:33;;;;;;;7.03;2.23;;;-1.50;99.90;;;;;;5132124;27;20480;-67
2022/01/22 04:16:01;;;;;;;7.13;3.07;;;-1.40;99.90;;;;;;5131975;27;20481;-67
2022/01/22 04:26:53;;;;;;;5.23;2.13;;;-1.50;99.90;;;;;;5131690;27;20427;-68
2022/01/22 04:29:21;;;;;;;4.50;2.40;;;-1.50;99.90;;;;;;5131374;27;20501;-67
2022/01/22 04:31:49;;;;;;;5.30;2.10;;;-1.50;99.90;;;;;;5131824;27;20445;-66
2022/01/22 04:34:17;;;;;;;5.77;2.27;;;-1.60;99.90;;;;;;5130866;27;20488;-67
2022/01/22 04:36:45;;;;;;;5.27;2.80;;;-1.50;99.90;;;;;;5131582;27;20518;-67
2022/01/22 04:39:13;;;;;;;4.10;2.07;;;-1.60;99.90;;;;;;5131338;27;20456;-67
2022/01/22 04:41:40;;;;;;;3.90;1.80;;;-1.60;99.90;;;;;;5131782;27;20799;-67
2022/01/22 04:44:08;;;;;;;4.20;2.03;;;-1.50;99.90;;;;;;5130978;27;20829;-66
2022/01/22 04:46:50;;;;;;;6.80;2.40;;;-1.50;99.90;;;;;;5131204;27;20457;-67
2022/01/22 04:54:59;;;;;;;5.10;2.33;;;-1.10;99.90;;;;;;5131234;27;20492;-67
2022/01/22 04:57:27;;;;;;;9.43;3.00;;;-1.20;99.90;;;;;;5130947;27;20451;-67
2022/01/22 04:59:54;;;;;;;7.00;3.30;;;-1.10;99.90;;;;;;5131058;27;20456;-67
2022/01/22 05:02:21;;;;;;;5.80;3.43;;;-1.10;99.90;;;;;;5131024;27;20456;-67
2022/01/22 05:04:50;;;;;;;10.87;3.20;;;-1.00;99.90;;;;;;5131039;27;20473;-67
2022/01/22 05:07:18;;;;;;;7.17;4.00;;;-0.90;99.90;;;;;;5131127;27;20924;-68
2022/01/22 05:09:45;;;;;;;4.10;2.60;;;-0.60;99.90;;;;;;5131132;27;20457;-68
2022/01/22 05:12:12;;;;;;;5.90;2.60;;;-0.60;99.90;;;;;;5131075;27;20518;-68
2022/01/22 05:14:39;;;;;;;6.03;2.93;;;-0.30;99.90;;;;;;5130809;27;20572;-68
2022/01/22 05:17:08;;;;;;;7.80;3.37;;;-0.20;99.90;;;;;;5130943;27;20457;-68
2022/01/22 05:19:45;;;;;;;8.13;3.10;;;-0.10;99.90;;;;;;5131040;27;20453;-67
2022/01/22 05:22:24;;;;;;;4.67;2.80;;;-0.10;99.90;;;;;;5130982;27;20441;-67
2022/01/22 05:24:56;;;;;;;5.90;2.60;;;0.00;99.90;;;;;;5130675;27;20489;-67
2022/01/22 05:27:50;;;;;;;9.50;3.63;;;0.00;99.90;;;;;;5131041;27;20450;-67
2022/01/22 05:30:47;;;;;;;4.80;2.70;;;0.10;99.90;;;;;;5130959;27;20806;-66
2022/01/22 05:33:29;;;;;;;7.13;2.90;;;0.10;99.90;;;;;;5130088;28;20481;-67
2022/01/22 05:38:43;;;;;;;5.70;3.10;;;-0.10;99.90;;;;;;5130878;28;20979;-66
2022/01/22 05:41:12;;;;;;;5.93;3.93;;;-0.10;99.90;;;;;;5130715;27;20453;-66
2022/01/22 05:43:39;;;;;;;6.90;3.20;;;-0.30;99.90;;;;;;5130887;27;20449;-66
2022/01/22 05:46:06;;;;;;;11.17;3.60;;;-0.40;99.90;;;;;;5130468;27;20462;-67
2022/01/22 05:48:33;;;;;;;6.67;3.30;;;-0.50;99.90;;;;;;5130502;27;20482;-66
2022/01/22 05:51:02;;;;;;;5.90;2.70;;;-0.50;99.90;;;;;;5130793;27;20891;-66
2022/01/22 05:53:44;;;;;;;8.63;3.97;;;-0.60;99.90;;;;;;5130528;27;20526;-66
2022/01/22 06:01:43;;;;;;;7.60;3.13;;;-0.70;99.90;;;;;;5134680;27;20466;-67
2022/01/22 06:04:11;;;;;;;10.30;2.70;;;-0.70;99.90;;;;;;5134277;27;20453;-67
2022/01/22 06:06:38;;;;;;;6.30;2.60;;;-0.80;99.90;;;;;;5134376;27;20469;-67
2022/01/22 06:09:08;;;;;;;5.53;2.23;;;-0.90;99.90;;;;;;5134465;27;20438;-66
2022/01/22 06:11:51;;;;;;;6.37;3.13;;;-0.80;99.90;;;;;;5134400;27;20530;-66
2022/01/22 06:14:18;;;;;;;5.47;2.53;;;-0.70;99.90;;;;;;5134155;27;20540;-66
2022/01/22 06:16:46;;;;;;;8.90;3.50;;;-0.70;99.90;;;;;;5133873;27;20577;-66
2022/01/22 06:19:13;;;;;;;5.87;2.60;;;-0.60;99.90;;;;;;5134266;27;20494;-66
2022/01/22 06:21:40;;;;;;;7.03;2.53;;;-0.40;99.90;;;;;;5134151;27;20449;-67
2022/01/22 06:24:08;;;;;;;6.33;4.10;;;-0.30;99.90;;;;;;5134505;27;20516;-67
2022/01/22 06:26:36;;;;;;;4.50;2.23;;;-0.40;99.90;;;;;;5134286;27;20473;-69
2022/01/22 06:29:04;;;;;;;6.03;2.37;;;-0.30;99.90;;;;;;5134205;27;20526;-68
2022/01/22 06:31:32;;;;;;;8.80;2.53;;;-0.10;99.90;;;;;;5133983;27;20457;-74
2022/01/22 06:33:59;;;;;;;4.30;2.20;;;-0.10;99.90;;;;;;5133779;27;20506;-67
2022/01/22 06:36:27;;;;;;;6.87;2.73;;;-0.20;99.90;;;;;;5133754;27;21067;-73
2022/01/22 06:38:58;;;;;;;5.00;2.27;;;-0.40;99.90;;;;;;5133565;27;20537;-68
2022/01/22 06:44:13;;;;;;;6.90;2.63;;;-0.60;99.90;;;;;;5133614;27;20445;-75
2022/01/22 06:46:40;;;;;;;6.77;2.63;;;-0.60;99.90;;;;;;5133690;27;20581;-76
2022/01/22 06:49:07;;;;;;;12.87;3.20;;;-0.70;99.90;;;;;;5133625;27;20820;-69
2022/01/22 06:51:34;;;;;;;7.00;3.17;;;-0.60;99.90;;;;;;5133697;27;20457;-72
2022/01/22 06:54:02;;;;;;;5.20;2.43;;;-0.80;99.90;;;;;;5133651;27;20457;-68
2022/01/22 06:56:30;;;;;;;6.07;2.57;;;-0.60;99.90;;;;;;5133727;27;20492;-72
2022/01/22 06:58:58;;;;;;;4.33;1.97;;;-0.50;99.90;;;;;;5133529;27;20546;-74
2022/01/22 07:01:27;;;;;;;8.70;2.33;;;-0.60;99.90;;;;;;5133502;27;20486;-74
2022/01/22 07:03:55;;;;;;;7.73;2.80;;;-0.50;99.90;;;;;;5133077;27;20452;-79
2022/01/22 07:06:22;;;;;;;5.60;2.70;;;-0.50;99.90;;;;;;5133574;27;20460;-70
2022/01/22 07:08:49;;;;;;;6.97;2.40;;;-0.60;99.90;;;;;;5134769;27;20858;-69
2022/01/22 07:11:17;;;;;;;4.23;2.10;;;-0.60;99.90;;;;;;5134581;27;20532;-71
2022/01/22 07:13:44;;;;;;;5.33;2.30;;;-0.50;99.90;;;;;;5134536;27;20480;-70
2022/01/22 07:16:11;;;;;;;5.60;2.30;;;-0.40;99.90;;;;;;5133694;27;20496;-72
2022/01/22 07:18:40;;;;;;;4.57;2.50;;;-0.40;99.90;;;;;;5132942;27;20935;-71
2022/01/22 07:21:15;;;;;;;4.40;2.50;;;-0.20;99.90;;;;;;5133336;27;20489;-71
2022/01/22 07:26:35;;;;;;;4.87;2.40;;;0.00;99.90;;;;;;5106918;27;20594;-72
2022/01/22 07:29:02;;;;;;;4.53;2.63;;;-0.10;99.90;;;;;;5133010;27;20460;-73
2022/01/22 07:31:29;;;;;;;7.70;2.90;;;0.10;99.90;;;;;;5133069;27;20511;-73
2022/01/22 07:33:57;;;;;;;5.60;2.50;;;0.30;99.90;;;;;;5132541;27;20489;-71
2022/01/22 07:36:25;;;;;;;6.27;2.83;;;0.50;99.90;;;;;;5132728;27;20558;-72
2022/01/22 07:38:52;;;;;;;5.23;2.50;;;0.20;99.90;;;;;;5132743;27;20502;-74
2022/01/22 07:41:19;;;;;;;6.27;2.90;;;-0.10;99.90;;;;;;5132964;27;20453;-74
2022/01/22 07:43:47;;;;;;;4.47;2.20;;;-0.10;99.90;;;;;;5132652;27;20450;-71
2022/01/22 07:46:14;;;;;;;6.77;2.50;;;0.10;99.90;;;;;;5132392;27;20467;-74
2022/01/22 07:48:41;;;;;;;7.13;3.03;;;0.30;99.90;;;;;;5132457;27;20852;-72
2022/01/22 07:51:10;;;;;;;6.00;2.87;;;0.40;99.90;;;;;;5132621;27;20461;-70
2022/01/22 07:53:37;;;;;;;4.80;3.10;;;0.40;99.90;;;;;;5132405;27;20943;-70
2022/01/22 07:56:04;;;;;;;5.30;3.30;;;0.40;99.90;;;;;;5132478;27;20519;-74
2022/01/22 07:58:32;;;;;;;5.27;3.27;;;0.40;99.90;;;;;;5132473;27;20437;-74
2022/01/22 08:00:59;;;;;;;8.70;3.93;;;0.30;99.90;;;;;;5132280;27;20885;-72
2022/01/22 08:03:27;;;;;;;9.60;4.03;;;0.40;99.90;;;;;;5132249;27;20602;-75
2022/01/22 08:05:54;;;;;;;8.00;3.20;;;0.50;99.90;;;;;;5132237;27;20476;-73
2022/01/22 08:08:23;;;;;;;6.13;3.20;;;0.50;99.90;;;;;;5132371;27;20439;-74
2022/01/22 08:10:50;;;;;;;7.07;4.10;;;0.60;99.90;;;;;;5132406;27;20471;-75
2022/01/22 08:13:18;;;;;;;6.03;2.87;;;0.80;99.90;;;;;;5132222;27;20446;-74
2022/01/22 08:15:46;;;;;;;4.93;2.97;;;1.00;99.90;;;;;;5131688;27;20497;-78
2022/01/22 08:18:13;;;;;;;6.00;3.00;;;1.20;99.90;;;;;;5130905;27;20458;-73
2022/01/22 08:20:40;;;;;;;5.40;2.43;;;1.20;99.40;;;;;;5132054;27;20461;-75
2022/01/22 08:23:07;;;;;;;4.73;1.70;;;1.00;98.50;;;;;;5132038;27;20448;-75
2022/01/22 08:25:37;;;;;;;4.60;2.37;;;0.80;99.00;;;;;;5131869;27;20474;-71
2022/01/22 08:30:54;;;;;;;5.73;2.33;;;0.70;99.90;;;;;;5131937;27;20809;-74
2022/01/22 08:35:52;;;;;;;9.23;2.40;;;1.00;99.90;;;;;;5131253;27;20584;-75
2022/01/22 08:36:20;;;;;;;7.63;3.40;;;1.50;99.90;;;;;;5131396;27;20485;-75
2022/01/22 08:38:49;;;;;;;5.07;3.00;;;1.90;99.80;;;;;;5131502;27;20447;-70
2022/01/22 08:41:17;;;;;;;6.30;3.30;;;2.20;98.10;;;;;;5131548;27;20478;-70
2022/01/22 08:43:44;;;;;;;5.00;2.77;;;2.30;97.30;;;;;;5131516;27;20446;-70
2022/01/22 08:46:11;;;;;;;5.50;2.67;;;2.20;96.00;;;;;;5131421;27;20459;-71
2022/01/22 08:48:38;;;;;;;10.73;2.50;;;2.20;96.10;;;;;;5131447;27;20485;-70
2022/01/22 08:51:06;;;;;;;4.90;2.13;;;2.20;94.80;;;;;;5131028;27;20455;-72
2022/01/22 08:53:33;;;;;;;4.10;2.10;;;1.70;95.20;;;;;;5131248;27;20478;-72
2022/01/22 08:56:02;;;;;;;6.53;2.67;;;1.70;95.70;;;;;;5131152;27;20491;-72
2022/01/22 08:58:30;;;;;;;4.20;1.77;;;1.90;96.00;;;;;;5131594;27;20482;-71
2022/01/22 09:00:58;;;;;;;4.53;2.23;;;1.80;95.80;;;;;;5131264;27;20485;-73
2022/01/22 09:03:25;;;;;;;9.50;3.10;;;1.90;95.70;;;;;;5131370;27;20446;-70
2022/01/22 09:05:54;;;;;;;5.00;2.60;;;2.10;95.00;;;;;;5131068;27;20468;-64
2022/01/22 09:08:23;;;;;;;8.40;3.17;;;2.20;95.30;;;;;;5131197;27;20447;-66
2022/01/22 09:10:50;;;;;;;3.93;2.50;;;2.30;94.20;;;;;;5131158;27;20989;-66
2022/01/22 09:13:18;;;;;;;4.83;2.73;;;2.00;94.90;;;;;;5131104;27;20456;-66
2022/01/22 09:15:47;;;;;;;5.90;2.67;;;2.30;95.20;;;;;;5130971;27;21040;-67
2022/01/22 09:18:14;;;;;;;6.10;3.50;;;2.70;94.90;;;;;;5130918;27;20874;-67
2022/01/22 09:21:01;;;;;;;7.77;3.20;;;2.50;93.70;;;;;;5129555;27;20452;-67
2022/01/22 09:23:29;;;;;;;7.40;3.60;;;1.80;94.00;;;;;;5130974;27;20458;-68
2022/01/22 09:25:57;;;;;;;6.50;3.30;;;1.80;95.00;;;;;;5130912;27;20951;-67
2022/01/22 09:28:24;;;;;;;5.70;2.97;;;1.40;94.90;;;;;;5130808;27;20519;-67
2022/01/22 09:30:52;;;;;;;4.87;3.50;;;1.40;95.50;;;;;;5130574;27;20459;-67
2022/01/22 09:33:20;;;;;;;6.60;2.87;;;1.60;95.50;;;;;;5130567;27;20477;-68
2022/01/22 09:35:47;;;;;;;5.43;2.67;;;2.00;95.50;;;;;;5130700;27;20463;-66
2022/01/22 09:38:14;;;;;;;7.80;3.33;;;2.10;93.70;;;;;;5130793;27;20447;-68
2022/01/22 09:40:41;;;;;;;5.17;3.00;;;2.00;93.90;;;;;;5130757;27;20896;-68
2022/01/22 09:43:09;;;;;;;4.97;2.70;;;1.90;93.70;;;;;;5130483;27;20442;-68
2022/01/22 09:45:36;;;;;;;5.97;3.00;;;1.70;93.20;;;;;;5130569;27;20478;-66
2022/01/22 09:48:06;;;;;;;4.47;2.37;;;1.80;93.20;;;;;;5130595;27;20450;-66
2022/01/22 09:50:34;;;;;;;5.00;2.50;;;1.90;92.80;;;;;;5130258;27;20450;-67
2022/01/22 09:53:01;;;;;;;7.97;2.63;;;1.90;92.30;;;;;;5130626;27;20449;-67
2022/01/22 09:55:28;;;;;;;5.37;2.77;;;1.50;92.20;;;;;;5130510;27;20463;-73
2022/01/22 09:57:58;;;;;;;5.63;2.87;;;1.80;92.50;;;;;;5130141;27;20486;-74
2022/01/22 10:00:26;;;;;;;4.23;2.20;;;2.00;92.50;;;;;;5130430;27;20501;-72
2022/01/22 10:02:54;;;;;;;6.77;2.43;;;2.20;92.10;;;;;;5130891;27;20534;-74
2022/01/22 10:05:35;;;;;;;5.47;2.40;;;2.40;91.90;;;;;;5130615;27;20875;-70
2022/01/22 10:08:21;;;;;;;5.10;2.67;;;2.90;92.70;;;;;;5130072;27;20449;-73
2022/01/22 10:10:48;;;;;;;10.50;3.67;;;3.30;88.90;;;;;;5130580;27;20446;-71
2022/01/22 10:13:39;;;;;;;7.00;2.77;;;3.20;89.50;;;;;;5131787;27;20498;-70
2022/01/22 10:16:19;;;;;;;5.67;2.37;;;3.40;88.70;;;;;;5130517;27;20584;-71
2022/01/22 10:18:47;;;;;;;7.10;2.63;;;3.00;87.60;;;;;;5130161;27;20511;-70
2022/01/22 10:21:16;;;;;;;4.90;2.30;;;3.00;86.70;;;;;;5130455;27;20456;-71
2022/01/22 10:23:43;;;;;;;6.33;2.23;;;2.80;88.20;;;;;;5130677;27;20943;-71
2022/01/22 10:26:14;;;;;;;5.50;2.60;;;2.70;90.70;;;;;;5130142;27;20474;-70
2022/01/22 10:28:47;;;;;;;5.43;2.83;;;2.80;90.80;;;;;;5130374;27;20458;-71
2022/01/22 10:31:25;;;;;;;5.73;2.50;;;2.90;90.20;;;;;;5130274;27;20456;-72
2022/01/22 10:34:06;;;;;;;4.63;2.30;;;3.00;90.20;;;;;;5130028;27;20573;-74
2022/01/22 10:36:34;;;;;;;6.37;2.40;;;3.20;85.90;;;;;;5130274;27;20487;-70
2022/01/22 10:39:01;;;;;;;4.80;1.73;;;3.10;85.00;;;;;;5130388;27;20446;-71
2022/01/22 10:41:37;;;;;;;4.60;2.37;;;2.70;83.80;;;;;;5132145;27;20453;-70
2022/01/22 10:44:09;;;;;;;5.33;2.43;;;2.70;86.60;;;;;;5133753;27;20447;-70
2022/01/22 10:46:47;;;;;;;6.60;2.50;;;2.60;84.30;;;;;;5133549;27;20468;-70
2022/01/22 10:49:16;;;;;;;3.87;2.37;;;2.50;87.00;;;;;;5133807;27;20480;-69
2022/01/22 10:51:49;;;;;;;5.90;2.13;;;2.70;88.20;;;;;;5133775;27;20457;-70
2022/01/22 10:54:18;;;;;;;7.00;3.60;;;3.10;86.40;;;;;;5133365;27;20827;-69
2022/01/22 10:56:46;;;;;;;5.47;2.83;;;3.30;86.30;;;;;;5133389;27;20986;-70
2022/01/22 10:59:16;;;;;;;7.27;3.20;;;3.80;85.20;;;;;;5133489;27;21000;-71
2022/01/22 11:01:50;;;;;;;6.30;2.60;;;3.50;81.00;;;;;;5134006;27;20460;-73
2022/01/22 11:04:19;;;;;;;4.93;3.00;;;3.50;80.80;;;;;;5133756;27;20453;-75
2022/01/22 11:06:55;;;;;;;6.67;2.73;;;3.50;81.90;;;;;;5133168;27;20970;-73
2022/01/22 11:09:23;;;;;;;6.63;2.80;;;3.50;80.00;;;;;;5133550;27;20572;-70
2022/01/22 11:11:51;;;;;;;6.53;3.13;;;3.70;79.10;;;;;;5133244;27;20936;-74
2022/01/22 11:14:20;;;;;;;8.00;2.70;;;3.90;80.70;;;;;;5133392;27;20453;-71
2022/01/22 11:16:50;;;;;;;5.20;2.53;;;4.00;77.60;;;;;;5132738;27;20493;-72
2022/01/22 11:19:19;;;;;;;4.93;2.43;;;4.10;78.10;;;;;;5133556;27;20546;-71
2022/01/22 11:21:48;;;;;;;3.90;1.83;;;3.90;74.80;;;;;;5133358;27;20459;-73
2022/01/22 11:24:18;;;;;;;6.93;1.90;;;3.90;76.10;;;;;;5133049;27;20457;-69
2022/01/22 11:26:50;;;;;;;6.60;2.70;;;3.80;74.30;;;;;;5133349;27;20462;-72
2022/01/22 11:29:21;;;;;;;5.80;2.20;;;3.10;74.90;;;;;;5133167;27;20480;-73
2022/01/22 11:31:49;;;;;;;5.97;2.60;;;2.90;77.00;;;;;;5132714;27;20454;-74
2022/01/22 11:34:20;;;;;;;7.00;3.00;;;3.00;79.50;;;;;;5132586;27;20549;-71
2022/01/22 11:36:58;;;;;;;6.27;3.33;;;2.90;77.10;;;;;;5132781;27;20878;-73
2022/01/22 11:39:26;;;;;;;4.23;2.37;;;2.50;79.10;;;;;;5133041;27;20589;-70
2022/01/22 11:41:56;;;;;;;7.53;3.07;;;2.60;82.60;;;;;;5132498;27;20502;-74
2022/01/22 11:44:46;;;;;;;5.40;2.57;;;2.40;80.90;;;;;;5132883;27;20450;-74
2022/01/22 11:47:15;;;;;;;5.20;2.47;;;2.20;83.60;;;;;;5132543;27;20826;-71
2022/01/22 11:50:06;;;;;;;5.10;2.60;;;2.30;84.90;;;;;;5132684;27;20953;-71
2022/01/22 11:52:36;;;;;;;8.60;3.63;;;2.50;86.80;;;;;;5132708;27;20529;-72
2022/01/22 11:55:09;;;;;;;5.70;2.80;;;2.60;86.60;;;;;;5132651;27;20884;-71
2022/01/22 11:57:36;;;;;;;5.63;2.20;;;2.70;86.50;;;;;;5132637;27;20483;-70
2022/01/22 12:00:25;;;;;;;6.30;2.77;;;2.60;86.80;;;;;;5132487;27;20522;-71
2022/01/22 12:03:21;;;;;;;6.23;3.23;;;2.30;89.20;;;;;;5132316;27;20446;-71
2022/01/22 12:06:06;;;;;;;5.67;2.67;;;2.20;89.40;;;;;;5132317;27;20581;-70
2022/01/22 12:09:04;;;;;;;5.27;2.83;;;2.00;91.10;;;;;;5131688;27;20491;-72
2022/01/22 12:14:53;;;;;;;4.33;2.73;;;1.80;91.40;;;;;;5132201;27;20434;-71
2022/01/22 12:17:59;;;;;;;5.47;2.97;;;1.80;91.20;;;;;;5131828;27;20847;-72
2022/01/22 12:21:30;;;;;;;4.90;2.80;;;1.80;93.10;;;;;;5132170;27;20912;-74
2022/01/22 12:23:54;;;;;;;8.77;3.00;;;1.90;94.50;;;;;;5131632;27;20447;-71
2022/01/22 12:26:49;;;;;;;6.27;3.63;;;1.80;95.90;;;;;;5131920;27;20957;-72
2022/01/22 12:29:53;;;;;;;6.63;3.70;;;1.80;97.20;;;;;;5132027;27;20531;-74
2022/01/22 12:32:37;;;;;;;6.20;3.63;;;1.90;98.70;;;;;;5131645;27;20989;-76
2022/01/22 12:35:11;;;;;;;6.53;3.40;;;1.80;99.70;;;;;;5131776;27;20456;-71
2022/01/22 12:38:01;;;;;;;5.70;3.50;;;1.50;99.90;;;;;;5131793;27;20993;-75
2022/01/22 12:40:33;;;;;;;5.87;3.50;;;1.50;99.90;;;;;;5131679;27;20951;-74
2022/01/22 12:43:20;;;;;;;7.07;4.33;;;1.50;99.90;;;;;;5131783;27;20816;-77
2022/01/22 12:45:55;;;;;;;7.07;4.20;;;1.70;99.90;;;;;;5131729;27;20480;-73
2022/01/22 12:48:27;;;;;;;5.63;3.10;;;1.80;99.90;;;;;;5131693;27;20929;-71
2022/01/22 12:50:54;;;;;;;6.43;3.90;;;1.80;99.90;;;;;;5131518;27;20455;-74
2022/01/22 12:53:22;;;;;;;5.40;3.13;;;1.70;99.90;;;;;;5131520;27;20594;-73
2022/01/22 12:56:13;;;;;;;6.00;3.20;;;1.20;99.90;;;;;;5130780;27;20557;-72
2022/01/22 12:58:42;;;;;;;4.97;3.33;;;1.20;99.90;;;;;;5131393;27;20489;-70
2022/01/22 13:01:29;;;;;;;5.30;2.33;;;1.30;99.90;;;;;;5133864;27;20458;-74
2022/01/22 13:04:02;;;;;;;5.33;2.43;;;1.20;99.90;;;;;;5135372;27;20450;-71
2022/01/22 13:06:38;;;;;;;6.83;3.50;;;0.90;99.90;;;;;;5138055;27;20823;-71
2022/01/22 13:09:05;;;;;;;4.23;2.63;;;1.10;99.90;;;;;;5136435;27;20434;-75
2022/01/22 13:11:33;;;;;;;7.50;3.47;;;1.30;99.90;;;;;;5131278;27;20455;-76
2022/01/22 13:14:01;;;;;;;4.90;2.67;;;1.40;99.90;;;;;;5131323;27;20473;-74
2022/01/22 13:16:28;;;;;;;8.20;3.60;;;1.50;99.90;;;;;;5131118;27;20469;-73
2022/01/22 13:18:59;;;;;;;6.70;3.10;;;1.50;99.90;;;;;;5131106;27;20551;-72
2022/01/22 13:21:28;;;;;;;8.17;3.70;;;1.60;99.90;;;;;;5130725;27;20450;-73
2022/01/22 13:24:07;;;;;;;6.27;4.00;;;1.80;99.90;;;;;;5131243;27;20453;-71
2022/01/22 13:26:54;;;;;;;10.80;3.57;;;1.80;99.90;;;;;;5131014;27;20469;-76
2022/01/22 13:29:25;;;;;;;7.43;3.80;;;1.80;99.90;;;;;;5131072;27;20462;-70
2022/01/22 13:32:05;;;;;;;8.00;4.67;;;1.70;99.90;;;;;;5130978;27;20939;-72
2022/01/22 13:34:56;;;;;;;7.63;4.23;;;1.70;99.90;;;;;;5130355;27;20523;-74
2022/01/22 13:40:37;;;;;;;6.73;3.20;;;1.90;99.90;;;;;;5104811;27;20431;-70
2022/01/22 13:48:38;;;;;;;7.47;3.93;;;1.60;99.90;;;;;;5130816;28;20426;-70
2022/01/22 13:51:07;;;;;;;6.13;3.03;;;1.70;99.90;;;;;;5130360;27;20481;-71
2022/01/22 13:53:37;;;;;;;6.23;3.63;;;1.60;99.90;;;;;;5130677;27;20558;-71
2022/01/22 13:56:09;;;;;;;5.17;4.03;;;1.70;99.90;;;;;;5130640;27;20477;-70
2022/01/22 13:58:37;;;;;;;5.70;3.30;;;1.70;99.90;;;;;;5130578;27;20495;-67
2022/01/22 14:01:16;;;;;;;8.27;4.20;;;1.90;99.90;;;;;;5130696;27;20618;-67
2022/01/22 14:03:45;;;;;;;8.63;3.53;;;1.90;99.70;;;;;;5130328;27;20550;-67
2022/01/22 14:06:14;;;;;;;6.87;3.30;;;1.90;99.90;;;;;;5130293;27;20502;-67
2022/01/22 14:08:41;;;;;;;6.43;3.40;;;1.80;99.40;;;;;;5130583;27;20454;-73
2022/01/22 14:11:10;;;;;;;5.93;2.97;;;1.80;99.30;;;;;;5130517;27;20459;-72
2022/01/22 14:13:37;;;;;;;6.63;3.10;;;1.80;99.10;;;;;;5130913;27;20461;-73
2022/01/22 14:16:12;;;;;;;4.67;2.43;;;1.60;99.10;;;;;;5131902;27;20479;-67
2022/01/22 14:18:40;;;;;;;6.10;3.40;;;1.70;99.10;;;;;;5134650;27;20814;-72
2022/01/22 14:21:16;;;;;;;5.30;2.77;;;1.70;99.40;;;;;;5134053;27;20455;-72
2022/01/22 14:23:47;;;;;;;5.50;2.87;;;1.60;98.60;;;;;;5134566;27;20561;-73
2022/01/22 14:26:16;;;;;;;5.80;2.53;;;1.40;99.90;;;;;;5134389;27;20458;-74
2022/01/22 14:28:45;;;;;;;6.23;2.97;;;1.50;99.90;;;;;;5134256;27;20485;-74